sensor_id;sensor_type;location;lat;lon;timestamp;pressure;altitude;pressure_sealevel;temperature;humidity
47967;BME280;33733;52.456;13.620;2023-12-29T00:00:08;100681.38;;;8.05;67.16
47967;BME280;33733;52.456;13.620;2023-12-29T00:02:37;100669.19;;;8.04;67.35
47967;BME280;33733;52.456;13.620;2023-12-29T00:05:04;100681.69;;;8.15;67.07
47967;BME280;33733;52.456;13.620;2023-12-29T00:07:31;100661.31;;;8.18;66.76
47967;BME280;33733;52.456;13.620;2023-12-29T00:09:59;100667.69;;;8.14;67.01
47967;BME280;33733;52.456;13.620;2023-12-29T00:12:26;100666.50;;;8.20;66.82
47967;BME280;33733;52.456;13.620;2023-12-29T00:14:53;100666.03;;;8.27;67.06
47967;BME280;33733;52.456;13.620;2023-12-29T00:17:20;100660.56;;;8.16;66.80
47967;BME280;33733;52.456;13.620;2023-12-29T00:19:47;100656.91;;;8.19;66.77
47967;BME280;33733;52.456;13.620;2023-12-29T00:22:15;100662.38;;;8.16;67.07
47967;BME280;33733;52.456;13.620;2023-12-29T00:24:42;100652.13;;;8.25;66.43
47967;BME280;33733;52.456;13.620;2023-12-29T00:27:10;100647.34;;;8.18;66.60
47967;BME280;33733;52.456;13.620;2023-12-29T00:29:37;100636.91;;;8.16;66.66
47967;BME280;33733;52.456;13.620;2023-12-29T00:32:05;100623.97;;;8.13;66.77
47967;BME280;33733;52.456;13.620;2023-12-29T00:34:32;100631.66;;;8.16;66.80
47967;BME280;33733;52.456;13.620;2023-12-29T00:37:00;100624.47;;;8.20;66.36
47967;BME280;33733;52.456;13.620;2023-12-29T00:39:28;100619.94;;;8.22;66.55
47967;BME280;33733;52.456;13.620;2023-12-29T00:41:56;100623.50;;;8.21;66.36
47967;BME280;33733;52.456;13.620;2023-12-29T00:44:23;100626.53;;;8.29;66.03
47967;BME280;33733;52.456;13.620;2023-12-29T00:46:51;100629.00;;;8.32;65.85
47967;BME280;33733;52.456;13.620;2023-12-29T00:49:18;100625.78;;;8.27;66.19
47967;BME280;33733;52.456;13.620;2023-12-29T00:51:47;100619.59;;;8.42;65.67
47967;BME280;33733;52.456;13.620;2023-12-29T00:54:14;100622.50;;;8.37;65.68
47967;BME280;33733;52.456;13.620;2023-12-29T00:56:48;100608.44;;;8.38;65.13
47967;BME280;33733;52.456;13.620;2023-12-29T00:59:15;100611.91;;;8.39;65.64
47967;BME280;33733;52.456;13.620;2023-12-29T01:01:42;100621.09;;;8.46;65.54
47967;BME280;33733;52.456;13.620;2023-12-29T01:04:12;100615.75;;;8.33;65.61
47967;BME280;33733;52.456;13.620;2023-12-29T01:06:39;100619.13;;;8.35;65.70
47967;BME280;33733;52.456;13.620;2023-12-29T01:09:09;100607.88;;;8.33;65.30
47967;BME280;33733;52.456;13.620;2023-12-29T01:11:39;100605.25;;;8.33;65.77
47967;BME280;33733;52.456;13.620;2023-12-29T01:14:07;100613.41;;;8.29;65.51
47967;BME280;33733;52.456;13.620;2023-12-29T01:16:34;100617.16;;;8.39;65.45
47967;BME280;33733;52.456;13.620;2023-12-29T01:19:02;100606.09;;;8.34;65.35
47967;BME280;33733;52.456;13.620;2023-12-29T01:21:29;100600.84;;;8.34;65.25
47967;BME280;33733;52.456;13.620;2023-12-29T01:24:01;100600.84;;;8.34;65.69
47967;BME280;33733;52.456;13.620;2023-12-29T01:26:30;100601.47;;;8.37;65.42
47967;BME280;33733;52.456;13.620;2023-12-29T01:28:58;100587.03;;;8.30;65.67
47967;BME280;33733;52.456;13.620;2023-12-29T01:31:29;100597.72;;;8.27;65.92
47967;BME280;33733;52.456;13.620;2023-12-29T01:33:58;100590.78;;;8.26;66.18
47967;BME280;33733;52.456;13.620;2023-12-29T01:36:25;100588.81;;;8.30;66.02
47967;BME280;33733;52.456;13.620;2023-12-29T01:38:53;100584.75;;;8.24;66.12
47967;BME280;33733;52.456;13.620;2023-12-29T01:41:20;100582.81;;;8.28;66.32
47967;BME280;33733;52.456;13.620;2023-12-29T01:46:21;100580.94;;;8.30;66.17
47967;BME280;33733;52.456;13.620;2023-12-29T01:48:48;100578.88;;;8.35;65.54
47967;BME280;33733;52.456;13.620;2023-12-29T01:51:17;100582.13;;;8.24;66.25
47967;BME280;33733;52.456;13.620;2023-12-29T01:53:47;100564.78;;;8.22;65.98
47967;BME280;33733;52.456;13.620;2023-12-29T01:56:16;100569.75;;;8.26;66.57
47967;BME280;33733;52.456;13.620;2023-12-29T01:58:45;100569.00;;;8.24;66.03
47967;BME280;33733;52.456;13.620;2023-12-29T02:01:17;100556.53;;;8.28;66.01
47967;BME280;33733;52.456;13.620;2023-12-29T02:03:45;100544.53;;;8.38;65.68
47967;BME280;33733;52.456;13.620;2023-12-29T02:06:13;100543.97;;;8.33;65.88
47967;BME280;33733;52.456;13.620;2023-12-29T02:08:41;100541.16;;;8.36;66.04
47967;BME280;33733;52.456;13.620;2023-12-29T02:11:09;100541.06;;;8.37;65.83
47967;BME280;33733;52.456;13.620;2023-12-29T02:13:37;100538.63;;;8.34;65.95
47967;BME280;33733;52.456;13.620;2023-12-29T02:16:07;100521.81;;;8.37;65.86
47967;BME280;33733;52.456;13.620;2023-12-29T02:18:37;100537.84;;;8.32;65.86
47967;BME280;33733;52.456;13.620;2023-12-29T02:21:05;100531.59;;;8.35;66.03
47967;BME280;33733;52.456;13.620;2023-12-29T02:23:33;100537.69;;;8.35;65.84
47967;BME280;33733;52.456;13.620;2023-12-29T02:26:04;100526.78;;;8.41;65.71
47967;BME280;33733;52.456;13.620;2023-12-29T02:28:37;100525.72;;;8.44;65.73
47967;BME280;33733;52.456;13.620;2023-12-29T02:31:10;100525.28;;;8.37;65.75
47967;BME280;33733;52.456;13.620;2023-12-29T02:33:40;100522.66;;;8.37;65.67
47967;BME280;33733;52.456;13.620;2023-12-29T02:36:10;100508.59;;;8.38;65.73
47967;BME280;33733;52.456;13.620;2023-12-29T02:38:39;100518.88;;;8.41;65.84
47967;BME280;33733;52.456;13.620;2023-12-29T02:41:07;100517.31;;;8.39;65.77
47967;BME280;33733;52.456;13.620;2023-12-29T02:43:34;100511.22;;;8.38;65.52
47967;BME280;33733;52.456;13.620;2023-12-29T02:46:03;100501.44;;;8.40;65.55
47967;BME280;33733;52.456;13.620;2023-12-29T02:48:30;100500.78;;;8.37;65.69
47967;BME280;33733;52.456;13.620;2023-12-29T02:50:58;100492.72;;;8.40;65.54
47967;BME280;33733;52.456;13.620;2023-12-29T02:53:25;100496.38;;;8.37;65.66
47967;BME280;33733;52.456;13.620;2023-12-29T02:55:52;100495.66;;;8.35;65.64
47967;BME280;33733;52.456;13.620;2023-12-29T02:58:19;100496.59;;;8.34;65.56
47967;BME280;33733;52.456;13.620;2023-12-29T03:00:47;100483.88;;;8.41;64.96
47967;BME280;33733;52.456;13.620;2023-12-29T03:03:15;100495.75;;;8.34;66.00
47967;BME280;33733;52.456;13.620;2023-12-29T03:05:42;100480.81;;;8.34;65.53
47967;BME280;33733;52.456;13.620;2023-12-29T03:08:09;100467.13;;;8.29;65.85
47967;BME280;33733;52.456;13.620;2023-12-29T03:10:37;100467.78;;;8.33;65.82
47967;BME280;33733;52.456;13.620;2023-12-29T03:13:04;100472.56;;;8.26;65.53
47967;BME280;33733;52.456;13.620;2023-12-29T03:15:31;100475.00;;;8.29;65.74
47967;BME280;33733;52.456;13.620;2023-12-29T03:17:59;100475.34;;;8.37;65.33
47967;BME280;33733;52.456;13.620;2023-12-29T03:20:26;100473.88;;;8.33;65.53
47967;BME280;33733;52.456;13.620;2023-12-29T03:22:54;100475.09;;;8.28;66.07
47967;BME280;33733;52.456;13.620;2023-12-29T03:25:22;100468.72;;;8.32;65.53
47967;BME280;33733;52.456;13.620;2023-12-29T03:27:50;100472.00;;;8.35;65.50
47967;BME280;33733;52.456;13.620;2023-12-29T03:30:17;100469.66;;;8.31;65.65
47967;BME280;33733;52.456;13.620;2023-12-29T03:32:44;100461.97;;;8.28;66.03
47967;BME280;33733;52.456;13.620;2023-12-29T03:35:12;100466.19;;;8.30;65.64
47967;BME280;33733;52.456;13.620;2023-12-29T03:37:39;100466.84;;;8.20;66.20
47967;BME280;33733;52.456;13.620;2023-12-29T03:40:07;100456.44;;;8.18;66.37
47967;BME280;33733;52.456;13.620;2023-12-29T03:42:37;100467.31;;;8.26;65.79
47967;BME280;33733;52.456;13.620;2023-12-29T03:45:04;100455.16;;;8.11;66.19
47967;BME280;33733;52.456;13.620;2023-12-29T03:47:32;100457.00;;;8.09;66.72
47967;BME280;33733;52.456;13.620;2023-12-29T03:49:59;100452.03;;;8.19;66.44
47967;BME280;33733;52.456;13.620;2023-12-29T03:52:26;100449.34;;;8.06;67.16
47967;BME280;33733;52.456;13.620;2023-12-29T03:54:53;100443.69;;;8.12;66.28
47967;BME280;33733;52.456;13.620;2023-12-29T03:57:21;100449.84;;;8.25;66.32
47967;BME280;33733;52.456;13.620;2023-12-29T03:59:48;100447.22;;;8.25;66.00
47967;BME280;33733;52.456;13.620;2023-12-29T04:02:15;100449.97;;;8.24;66.24
47967;BME280;33733;52.456;13.620;2023-12-29T04:04:44;100445.09;;;8.32;65.72
47967;BME280;33733;52.456;13.620;2023-12-29T04:07:11;100441.53;;;8.19;66.37
47967;BME280;33733;52.456;13.620;2023-12-29T04:09:39;100443.09;;;8.21;66.29
47967;BME280;33733;52.456;13.620;2023-12-29T04:12:06;100444.88;;;8.21;66.30
47967;BME280;33733;52.456;13.620;2023-12-29T04:14:33;100424.72;;;8.21;65.85
47967;BME280;33733;52.456;13.620;2023-12-29T04:17:01;100427.47;;;8.20;66.34
47967;BME280;33733;52.456;13.620;2023-12-29T04:19:30;100430.25;;;8.17;66.08
47967;BME280;33733;52.456;13.620;2023-12-29T04:21:57;100429.53;;;8.15;66.27
47967;BME280;33733;52.456;13.620;2023-12-29T04:24:25;100413.78;;;8.15;66.26
47967;BME280;33733;52.456;13.620;2023-12-29T04:26:53;100412.84;;;8.16;66.41
47967;BME280;33733;52.456;13.620;2023-12-29T04:29:20;100413.50;;;8.05;66.59
47967;BME280;33733;52.456;13.620;2023-12-29T04:31:47;100408.41;;;8.16;66.48
47967;BME280;33733;52.456;13.620;2023-12-29T04:34:15;100401.13;;;8.07;66.64
47967;BME280;33733;52.456;13.620;2023-12-29T04:36:42;100404.50;;;8.09;65.94
47967;BME280;33733;52.456;13.620;2023-12-29T04:39:10;100404.78;;;8.04;66.95
47967;BME280;33733;52.456;13.620;2023-12-29T04:41:37;100398.38;;;8.09;66.50
47967;BME280;33733;52.456;13.620;2023-12-29T04:44:04;100407.75;;;8.13;66.51
47967;BME280;33733;52.456;13.620;2023-12-29T04:46:31;100407.75;;;8.13;66.29
47967;BME280;33733;52.456;13.620;2023-12-29T04:48:58;100408.88;;;8.23;66.00
47967;BME280;33733;52.456;13.620;2023-12-29T04:51:26;100395.38;;;8.15;66.62
47967;BME280;33733;52.456;13.620;2023-12-29T04:53:53;100392.25;;;8.22;66.58
47967;BME280;33733;52.456;13.620;2023-12-29T04:56:20;100388.31;;;8.29;66.41
47967;BME280;33733;52.456;13.620;2023-12-29T04:58:51;100383.44;;;8.23;66.69
47967;BME280;33733;52.456;13.620;2023-12-29T05:01:18;100377.72;;;8.31;66.23
47967;BME280;33733;52.456;13.620;2023-12-29T05:03:45;100374.03;;;8.33;66.39
47967;BME280;33733;52.456;13.620;2023-12-29T05:06:13;100379.22;;;8.47;65.85
47967;BME280;33733;52.456;13.620;2023-12-29T05:08:40;100372.06;;;8.49;66.30
47967;BME280;33733;52.456;13.620;2023-12-29T05:11:07;100372.06;;;8.49;65.67
47967;BME280;33733;52.456;13.620;2023-12-29T05:13:34;100361.34;;;8.53;65.76
47967;BME280;33733;52.456;13.620;2023-12-29T05:16:01;100369.88;;;8.56;65.61
47967;BME280;33733;52.456;13.620;2023-12-29T05:18:30;100370.94;;;8.66;65.48
47967;BME280;33733;52.456;13.620;2023-12-29T05:20:58;100360.16;;;8.83;64.86
47967;BME280;33733;52.456;13.620;2023-12-29T05:23:25;100359.19;;;8.72;65.21
47967;BME280;33733;52.456;13.620;2023-12-29T05:25:53;100374.44;;;8.79;65.07
47967;BME280;33733;52.456;13.620;2023-12-29T05:28:20;100368.66;;;8.74;65.40
47967;BME280;33733;52.456;13.620;2023-12-29T05:30:47;100366.13;;;8.73;65.24
47967;BME280;33733;52.456;13.620;2023-12-29T05:33:15;100364.66;;;8.81;65.23
47967;BME280;33733;52.456;13.620;2023-12-29T05:35:42;100371.28;;;8.87;64.82
47967;BME280;33733;52.456;13.620;2023-12-29T05:38:09;100360.03;;;8.85;65.13
47967;BME280;33733;52.456;13.620;2023-12-29T05:40:36;100365.50;;;8.82;64.83
47967;BME280;33733;52.456;13.620;2023-12-29T05:43:04;100370.66;;;8.83;64.62
47967;BME280;33733;52.456;13.620;2023-12-29T05:45:31;100359.09;;;8.86;64.69
47967;BME280;33733;52.456;13.620;2023-12-29T05:47:58;100366.88;;;8.87;64.55
47967;BME280;33733;52.456;13.620;2023-12-29T05:50:26;100363.72;;;8.82;64.84
47967;BME280;33733;52.456;13.620;2023-12-29T05:52:53;100367.91;;;8.85;64.79
47967;BME280;33733;52.456;13.620;2023-12-29T05:55:20;100375.81;;;8.98;64.26
47967;BME280;33733;52.456;13.620;2023-12-29T05:57:48;100372.34;;;8.97;64.53
47967;BME280;33733;52.456;13.620;2023-12-29T06:00:15;100368.84;;;8.96;64.25
47967;BME280;33733;52.456;13.620;2023-12-29T06:02:43;100366.44;;;8.93;64.33
47967;BME280;33733;52.456;13.620;2023-12-29T06:05:10;100375.28;;;8.92;64.14
47967;BME280;33733;52.456;13.620;2023-12-29T06:07:38;100371.63;;;8.95;63.96
47967;BME280;33733;52.456;13.620;2023-12-29T06:10:06;100358.47;;;8.95;63.70
47967;BME280;33733;52.456;13.620;2023-12-29T06:12:33;100353.72;;;8.87;64.06
47967;BME280;33733;52.456;13.620;2023-12-29T06:15:02;100348.47;;;8.87;64.17
47967;BME280;33733;52.456;13.620;2023-12-29T06:17:29;100329.09;;;8.88;64.16
47967;BME280;33733;52.456;13.620;2023-12-29T06:19:56;100345.31;;;8.95;63.75
47967;BME280;33733;52.456;13.620;2023-12-29T06:22:25;100341.53;;;8.99;63.72
47967;BME280;33733;52.456;13.620;2023-12-29T06:24:52;100344.88;;;9.01;63.73
47967;BME280;33733;52.456;13.620;2023-12-29T06:27:20;100337.00;;;9.01;63.27
47967;BME280;33733;52.456;13.620;2023-12-29T06:29:47;100325.31;;;9.05;63.55
47967;BME280;33733;52.456;13.620;2023-12-29T06:32:14;100328.66;;;9.20;63.01
47967;BME280;33733;52.456;13.620;2023-12-29T06:34:42;100321.28;;;9.12;63.08
47967;BME280;33733;52.456;13.620;2023-12-29T06:37:09;100325.53;;;9.15;63.09
47967;BME280;33733;52.456;13.620;2023-12-29T06:39:36;100336.66;;;9.18;62.84
47967;BME280;33733;52.456;13.620;2023-12-29T06:42:04;100333.81;;;9.21;62.82
47967;BME280;33733;52.456;13.620;2023-12-29T06:44:31;100366.44;;;9.31;62.45
47967;BME280;33733;52.456;13.620;2023-12-29T06:46:58;100351.28;;;9.35;62.18
47967;BME280;33733;52.456;13.620;2023-12-29T06:49:25;100378.00;;;9.41;62.27
47967;BME280;33733;52.456;13.620;2023-12-29T06:51:53;100381.88;;;9.36;62.21
47967;BME280;33733;52.456;13.620;2023-12-29T06:54:20;100391.88;;;9.43;62.55
47967;BME280;33733;52.456;13.620;2023-12-29T06:56:47;100381.34;;;9.43;61.99
47967;BME280;33733;52.456;13.620;2023-12-29T06:59:15;100383.47;;;9.51;62.06
47967;BME280;33733;52.456;13.620;2023-12-29T07:01:43;100381.16;;;9.47;62.04
47967;BME280;33733;52.456;13.620;2023-12-29T07:04:10;100379.00;;;9.52;62.28
47967;BME280;33733;52.456;13.620;2023-12-29T07:06:38;100370.41;;;9.50;62.29
47967;BME280;33733;52.456;13.620;2023-12-29T07:09:06;100371.53;;;9.58;62.02
47967;BME280;33733;52.456;13.620;2023-12-29T07:11:35;100376.06;;;9.56;61.96
47967;BME280;33733;52.456;13.620;2023-12-29T07:14:03;100377.03;;;9.55;62.00
47967;BME280;33733;52.456;13.620;2023-12-29T07:16:30;100371.94;;;9.65;62.10
47967;BME280;33733;52.456;13.620;2023-12-29T07:18:57;100370.47;;;9.61;61.83
47967;BME280;33733;52.456;13.620;2023-12-29T07:21:25;100379.53;;;9.57;62.09
47967;BME280;33733;52.456;13.620;2023-12-29T07:23:52;100374.28;;;9.57;62.14
47967;BME280;33733;52.456;13.620;2023-12-29T07:26:19;100383.09;;;9.56;62.19
47967;BME280;33733;52.456;13.620;2023-12-29T07:28:46;100384.38;;;9.63;62.05
47967;BME280;33733;52.456;13.620;2023-12-29T07:31:13;100382.69;;;9.62;62.23
47967;BME280;33733;52.456;13.620;2023-12-29T07:33:41;100380.78;;;9.64;62.00
47967;BME280;33733;52.456;13.620;2023-12-29T07:36:08;100375.81;;;9.72;61.71
47967;BME280;33733;52.456;13.620;2023-12-29T07:38:36;100379.34;;;9.83;61.33
47967;BME280;33733;52.456;13.620;2023-12-29T07:41:03;100381.63;;;9.64;61.92
47967;BME280;33733;52.456;13.620;2023-12-29T07:43:31;100386.25;;;9.61;61.82
47967;BME280;33733;52.456;13.620;2023-12-29T07:45:59;100386.41;;;9.59;62.17
47967;BME280;33733;52.456;13.620;2023-12-29T07:48:26;100374.88;;;9.60;62.13
47967;BME280;33733;52.456;13.620;2023-12-29T07:50:56;100376.56;;;9.61;62.16
47967;BME280;33733;52.456;13.620;2023-12-29T07:53:25;100378.28;;;9.62;62.23
47967;BME280;33733;52.456;13.620;2023-12-29T07:55:52;100385.53;;;9.59;62.32
47967;BME280;33733;52.456;13.620;2023-12-29T07:58:20;100378.06;;;9.53;62.31
47967;BME280;33733;52.456;13.620;2023-12-29T08:00:47;100395.22;;;9.58;62.45
47967;BME280;33733;52.456;13.620;2023-12-29T08:03:15;100398.25;;;9.65;62.01
47967;BME280;33733;52.456;13.620;2023-12-29T08:05:42;100391.34;;;9.51;62.43
47967;BME280;33733;52.456;13.620;2023-12-29T08:08:09;100385.75;;;9.56;62.38
47967;BME280;33733;52.456;13.620;2023-12-29T08:10:37;100396.78;;;9.73;61.85
47967;BME280;33733;52.456;13.620;2023-12-29T08:13:04;100374.34;;;9.68;62.28
47967;BME280;33733;52.456;13.620;2023-12-29T08:15:31;100390.69;;;9.60;62.18
47967;BME280;33733;52.456;13.620;2023-12-29T08:17:58;100403.34;;;9.55;62.27
47967;BME280;33733;52.456;13.620;2023-12-29T08:20:26;100392.78;;;9.68;61.96
47967;BME280;33733;52.456;13.620;2023-12-29T08:22:53;100402.06;;;9.61;62.31
47967;BME280;33733;52.456;13.620;2023-12-29T08:25:21;100395.84;;;9.62;62.32
47967;BME280;33733;52.456;13.620;2023-12-29T08:27:48;100405.00;;;9.69;62.20
47967;BME280;33733;52.456;13.620;2023-12-29T08:30:15;100403.44;;;9.66;62.17
47967;BME280;33733;52.456;13.620;2023-12-29T08:32:43;100414.28;;;9.62;62.12
47967;BME280;33733;52.456;13.620;2023-12-29T08:35:10;100405.22;;;9.66;61.89
47967;BME280;33733;52.456;13.620;2023-12-29T08:37:38;100388.91;;;9.61;62.00
47967;BME280;33733;52.456;13.620;2023-12-29T08:40:06;100403.22;;;9.69;62.22
47967;BME280;33733;52.456;13.620;2023-12-29T08:42:33;100392.91;;;9.66;62.00
47967;BME280;33733;52.456;13.620;2023-12-29T08:45:01;100397.16;;;9.80;61.94
47967;BME280;33733;52.456;13.620;2023-12-29T08:47:28;100411.78;;;9.84;61.74
47967;BME280;33733;52.456;13.620;2023-12-29T08:49:55;100404.09;;;9.94;61.56
47967;BME280;33733;52.456;13.620;2023-12-29T08:52:22;100406.13;;;9.77;61.89
47967;BME280;33733;52.456;13.620;2023-12-29T08:54:50;100399.50;;;9.72;61.91
47967;BME280;33733;52.456;13.620;2023-12-29T08:57:17;100412.13;;;9.79;61.86
47967;BME280;33733;52.456;13.620;2023-12-29T08:59:44;100401.16;;;9.85;61.79
47967;BME280;33733;52.456;13.620;2023-12-29T09:02:12;100410.00;;;9.84;62.06
47967;BME280;33733;52.456;13.620;2023-12-29T09:04:42;100398.81;;;9.94;62.00
47967;BME280;33733;52.456;13.620;2023-12-29T09:07:10;100386.06;;;9.87;61.44
47967;BME280;33733;52.456;13.620;2023-12-29T09:09:37;100401.50;;;9.81;61.78
47967;BME280;33733;52.456;13.620;2023-12-29T09:12:05;100397.28;;;9.78;62.07
47967;BME280;33733;52.456;13.620;2023-12-29T09:14:32;100400.31;;;9.85;62.06
47967;BME280;33733;52.456;13.620;2023-12-29T09:17:01;100402.81;;;9.99;61.72
47967;BME280;33733;52.456;13.620;2023-12-29T09:19:28;100413.84;;;10.04;61.59
47967;BME280;33733;52.456;13.620;2023-12-29T09:22:05;100406.94;;;10.27;61.15
47967;BME280;33733;52.456;13.620;2023-12-29T09:24:33;100398.75;;;10.19;61.05
47967;BME280;33733;52.456;13.620;2023-12-29T09:27:01;100413.31;;;10.35;61.05
47967;BME280;33733;52.456;13.620;2023-12-29T09:29:28;100395.72;;;10.36;60.46
47967;BME280;33733;52.456;13.620;2023-12-29T09:31:55;100409.00;;;10.58;60.57
47967;BME280;33733;52.456;13.620;2023-12-29T09:34:22;100409.25;;;10.66;60.14
47967;BME280;33733;52.456;13.620;2023-12-29T09:36:50;100411.53;;;10.71;60.09
47967;BME280;33733;52.456;13.620;2023-12-29T09:39:17;100405.03;;;10.64;59.89
47967;BME280;33733;52.456;13.620;2023-12-29T09:41:46;100410.41;;;10.86;59.54
47967;BME280;33733;52.456;13.620;2023-12-29T09:44:20;100403.94;;;10.90;59.42
47967;BME280;33733;52.456;13.620;2023-12-29T09:46:50;100394.50;;;11.10;58.85
47967;BME280;33733;52.456;13.620;2023-12-29T09:49:20;100413.03;;;10.86;59.19
47967;BME280;33733;52.456;13.620;2023-12-29T09:51:48;100404.44;;;10.60;60.01
47967;BME280;33733;52.456;13.620;2023-12-29T09:54:16;100395.41;;;10.87;59.59
47967;BME280;33733;52.456;13.620;2023-12-29T09:56:43;100409.31;;;10.89;59.45
47967;BME280;33733;52.456;13.620;2023-12-29T09:59:11;100392.66;;;10.99;59.36
47967;BME280;33733;52.456;13.620;2023-12-29T10:01:41;100398.78;;;11.11;59.05
47967;BME280;33733;52.456;13.620;2023-12-29T10:04:08;100395.25;;;10.77;59.54
47967;BME280;33733;52.456;13.620;2023-12-29T10:06:36;100399.59;;;10.89;59.22
47967;BME280;33733;52.456;13.620;2023-12-29T10:09:06;100399.16;;;11.06;59.51
47967;BME280;33733;52.456;13.620;2023-12-29T10:11:35;100400.63;;;11.10;58.81
47967;BME280;33733;52.456;13.620;2023-12-29T10:14:30;100397.59;;;11.15;59.04
47967;BME280;33733;52.456;13.620;2023-12-29T10:17:05;100393.38;;;10.90;59.68
47967;BME280;33733;52.456;13.620;2023-12-29T10:19:37;100394.69;;;10.84;59.48
47967;BME280;33733;52.456;13.620;2023-12-29T10:22:13;100395.16;;;10.78;60.10
47967;BME280;33733;52.456;13.620;2023-12-29T10:24:42;100377.91;;;10.86;59.03
47967;BME280;33733;52.456;13.620;2023-12-29T10:27:13;100389.66;;;10.93;59.29
47967;BME280;33733;52.456;13.620;2023-12-29T10:29:40;100389.56;;;11.16;58.49
47967;BME280;33733;52.456;13.620;2023-12-29T10:32:07;100389.81;;;11.02;59.14
47967;BME280;33733;52.456;13.620;2023-12-29T10:34:36;100372.28;;;11.12;58.58
47967;BME280;33733;52.456;13.620;2023-12-29T10:37:04;100361.97;;;11.09;58.62
47967;BME280;33733;52.456;13.620;2023-12-29T10:39:36;100365.22;;;11.13;58.76
47967;BME280;33733;52.456;13.620;2023-12-29T10:42:07;100369.66;;;11.35;58.70
47967;BME280;33733;52.456;13.620;2023-12-29T10:44:36;100364.88;;;11.17;58.41
47967;BME280;33733;52.456;13.620;2023-12-29T10:47:10;100366.16;;;11.23;58.56
47967;BME280;33733;52.456;13.620;2023-12-29T10:49:40;100367.25;;;11.09;58.61
47967;BME280;33733;52.456;13.620;2023-12-29T10:52:15;100379.72;;;11.07;59.14
47967;BME280;33733;52.456;13.620;2023-12-29T10:54:43;100370.84;;;11.08;59.02
47967;BME280;33733;52.456;13.620;2023-12-29T10:57:12;100365.59;;;11.30;58.83
47967;BME280;33733;52.456;13.620;2023-12-29T10:59:39;100379.97;;;11.15;58.64
47967;BME280;33733;52.456;13.620;2023-12-29T11:02:07;100377.47;;;11.25;58.83
47967;BME280;33733;52.456;13.620;2023-12-29T11:04:41;100359.47;;;11.41;58.64
47967;BME280;33733;52.456;13.620;2023-12-29T11:07:11;100372.78;;;11.73;57.03
47967;BME280;33733;52.456;13.620;2023-12-29T11:09:39;100377.66;;;11.66;57.73
47967;BME280;33733;52.456;13.620;2023-12-29T11:12:09;100368.94;;;11.66;57.38
47967;BME280;33733;52.456;13.620;2023-12-29T11:14:37;100379.41;;;11.34;57.93
47967;BME280;33733;52.456;13.620;2023-12-29T11:17:05;100386.69;;;11.53;57.82
47967;BME280;33733;52.456;13.620;2023-12-29T11:19:33;100381.91;;;11.24;57.67
47967;BME280;33733;52.456;13.620;2023-12-29T11:22:01;100390.78;;;11.35;58.53
47967;BME280;33733;52.456;13.620;2023-12-29T11:24:29;100388.50;;;11.30;58.15
47967;BME280;33733;52.456;13.620;2023-12-29T11:27:07;100388.88;;;11.37;58.46
47967;BME280;33733;52.456;13.620;2023-12-29T11:29:35;100377.72;;;11.22;58.65
47967;BME280;33733;52.456;13.620;2023-12-29T11:32:05;100375.91;;;11.22;58.76
47967;BME280;33733;52.456;13.620;2023-12-29T11:34:44;100366.66;;;11.28;58.57
47967;BME280;33733;52.456;13.620;2023-12-29T11:37:26;100367.38;;;11.19;58.77
47967;BME280;33733;52.456;13.620;2023-12-29T11:42:33;100362.59;;;11.13;59.14
47967;BME280;33733;52.456;13.620;2023-12-29T11:45:24;100361.28;;;11.29;58.52
47967;BME280;33733;52.456;13.620;2023-12-29T11:47:53;100367.00;;;11.12;59.09
47967;BME280;33733;52.456;13.620;2023-12-29T11:50:32;100362.72;;;11.34;58.33
47967;BME280;33733;52.456;13.620;2023-12-29T11:53:00;100367.84;;;11.35;58.44
47967;BME280;33733;52.456;13.620;2023-12-29T11:55:46;100355.84;;;11.20;58.91
47967;BME280;33733;52.456;13.620;2023-12-29T11:58:24;100344.34;;;11.21;58.76
47967;BME280;33733;52.456;13.620;2023-12-29T12:00:52;100340.50;;;11.14;59.17
47967;BME280;33733;52.456;13.620;2023-12-29T12:03:28;100345.41;;;11.07;58.94
47967;BME280;33733;52.456;13.620;2023-12-29T12:05:59;100345.91;;;11.12;59.24
47967;BME280;33733;52.456;13.620;2023-12-29T12:08:36;100347.94;;;11.20;59.07
47967;BME280;33733;52.456;13.620;2023-12-29T12:13:57;100335.94;;;11.27;59.14
47967;BME280;33733;52.456;13.620;2023-12-29T12:19:12;100342.81;;;11.18;59.49
47967;BME280;33733;52.456;13.620;2023-12-29T12:21:40;100348.78;;;11.20;59.19
47967;BME280;33733;52.456;13.620;2023-12-29T12:24:08;100347.34;;;11.16;59.52
47967;BME280;33733;52.456;13.620;2023-12-29T12:26:35;100346.41;;;11.06;59.62
47967;BME280;33733;52.456;13.620;2023-12-29T12:29:04;100342.53;;;11.32;59.39
47967;BME280;33733;52.456;13.620;2023-12-29T12:31:31;100345.88;;;11.35;58.89
47967;BME280;33733;52.456;13.620;2023-12-29T12:33:59;100342.31;;;11.24;59.49
47967;BME280;33733;52.456;13.620;2023-12-29T12:36:30;100340.59;;;11.57;58.98
47967;BME280;33733;52.456;13.620;2023-12-29T12:39:00;100323.22;;;11.32;59.14
47967;BME280;33733;52.456;13.620;2023-12-29T12:41:28;100333.44;;;11.14;60.36
47967;BME280;33733;52.456;13.620;2023-12-29T12:44:12;100337.53;;;11.18;60.24
47967;BME280;33733;52.456;13.620;2023-12-29T12:46:44;100338.47;;;11.28;60.11
47967;BME280;33733;52.456;13.620;2023-12-29T12:49:16;100341.13;;;11.17;60.24
47967;BME280;33733;52.456;13.620;2023-12-29T12:51:45;100337.13;;;11.12;60.18
47967;BME280;33733;52.456;13.620;2023-12-29T12:54:13;100325.88;;;11.10;60.40
47967;BME280;33733;52.456;13.620;2023-12-29T12:56:42;100328.88;;;11.16;60.83
47967;BME280;33733;52.456;13.620;2023-12-29T12:59:10;100318.19;;;11.07;60.82
47967;BME280;33733;52.456;13.620;2023-12-29T13:01:39;100325.75;;;11.00;60.49
47967;BME280;33733;52.456;13.620;2023-12-29T13:04:07;100326.84;;;10.98;61.81